Time,TemperatureF,DewpointF,PressureIn,WindDirection,WindDirectionDegrees,WindSpeedMPH,WindSpeedGustMPH,Humidity,HourlyPrecipIn,Conditions,Clouds,dailyrainin,SolarRadiationWatts/m^2,SoftwareType,DateUTC
2013-12-18 00:03:00,16.4,8.3,30.05,West,275,6.0,6.0,70,0.00,,,0.00,0.00,VWS V15.00,2013-12-18 06:03:00,
2013-12-18 00:08:00,16.3,8.2,30.05,West,277,0.0,6.0,70,0.00,,,0.00,0.00,VWS V15.00,2013-12-18 06:08:00,
2013-12-18 00:13:00,16.2,8.1,30.05,West,277,0.0,0.0,70,0.00,,,0.00,0.00,VWS V15.00,2013-12-18 06:13:00,
2013-12-18 00:18:00,16.1,8.4,30.05,West,277,0.0,0.0,71,0.00,,,0.00,0.00,VWS V15.00,2013-12-18 06:18:00,
2013-12-18 00:23:00,15.9,8.2,30.05,West,277,0.0,0.0,71,0.00,,,0.00,0.00,VWS V15.00,2013-12-18 06:23:00,
2013-12-18 00:28:00,15.8,8.1,30.05,West,277,0.0,0.0,71,0.00,,,0.00,0.00,VWS V15.00,2013-12-18 06:28:00,
2013-12-18 00:33:00,15.6,7.9,30.05,SSE,167,0.0,4.0,71,0.00,,,0.00,0.00,VWS V15.00,2013-12-18 06:33:00,
2013-12-18 00:38:00,15.5,7.8,30.05,WSW,258,11.0,11.0,71,0.00,,,0.00,0.00,VWS V15.00,2013-12-18 06:38:00,
2013-12-18 00:43:00,15.3,7.6,30.05,WNW,292,0.0,3.0,71,0.00,,,0.00,0.00,VWS V15.00,2013-12-18 06:43:00,
2013-12-18 00:48:00,15.3,7.6,30.05,West,280,2.0,8.0,71,0.00,,,0.00,0.00,VWS V15.00,2013-12-18 06:48:00,
2013-12-18 00:53:00,15.3,7.6,30.05,SW,225,0.0,3.0,71,0.00,,,0.00,0.00,VWS V15.00,2013-12-18 06:53:00,
2013-12-18 00:58:00,15.3,7.6,30.05,NW,325,2.0,7.0,71,0.00,,,0.00,0.00,VWS V15.00,2013-12-18 06:58:00,
2013-12-18 01:03:00,15.3,7.6,30.05,SW,229,3.0,6.0,71,0.00,,,0.00,0.00,VWS V15.00,2013-12-18 07:03:00,
2013-12-18 01:08:00,15.3,7.6,30.05,North,355,2.0,11.0,71,0.00,,,0.00,0.00,VWS V15.00,2013-12-18 07:08:00,
2013-12-18 01:13:00,15.3,7.6,30.05,WNW,288,0.0,8.0,71,0.00,,,0.00,0.00,VWS V15.00,2013-12-18 07:13:00,
2013-12-18 01:18:00,15.3,7.6,30.05,NNW,327,2.0,8.0,71,0.00,,,0.00,0.00,VWS V15.00,2013-12-18 07:18:00,
2013-12-18 01:23:00,15.3,7.6,30.05,NW,315,2.0,8.0,71,0.00,,,0.00,0.00,VWS V15.00,2013-12-18 07:23:00,
2013-12-18 01:28:00,14.3,6.6,30.05,NNW,344,2.0,8.0,71,0.00,,,0.00,0.00,VWS V15.00,2013-12-18 07:28:00,
2013-12-18 01:33:00,14.1,6.4,30.05,NNW,329,0.0,6.0,71,0.00,,,0.00,0.00,VWS V15.00,2013-12-18 07:33:00,
2013-12-18 01:38:00,13.9,6.2,30.05,NNW,327,1.0,7.0,71,0.00,,,0.00,0.00,VWS V15.00,2013-12-18 07:38:00,
2013-12-18 01:43:00,13.7,6.1,30.05,NNW,327,2.0,4.0,71,0.00,,,0.00,0.00,VWS V15.00,2013-12-18 07:43:00,
2013-12-18 01:48:00,13.7,6.1,30.05,NNW,331,0.0,4.0,71,0.00,,,0.00,0.00,VWS V15.00,2013-12-18 07:48:00,
2013-12-18 01:53:00,13.3,6.0,30.05,West,267,1.0,3.0,72,0.00,,,0.00,0.00,VWS V15.00,2013-12-18 07:53:00,
2013-12-18 01:58:00,13.1,5.8,30.05,NW,318,2.0,4.0,72,0.00,,,0.00,0.00,VWS V15.00,2013-12-18 07:58:00,
2013-12-18 02:03:00,12.9,5.6,30.05,NW,318,2.0,2.0,72,0.00,,,0.00,0.00,VWS V15.00,2013-12-18 08:03:00,
2013-12-18 02:08:00,12.7,5.4,30.05,NW,318,2.0,2.0,72,0.00,,,0.00,0.00,VWS V15.00,2013-12-18 08:08:00,
2013-12-18 02:13:00,12.5,5.5,30.06,NW,318,2.0,2.0,73,0.00,,,0.00,0.00,VWS V15.00,2013-12-18 08:13:00,
2013-12-18 02:18:00,12.2,5.2,30.06,NW,318,2.0,2.0,73,0.00,,,0.00,0.00,VWS V15.00,2013-12-18 08:18:00,
2013-12-18 02:23:00,12.1,5.1,30.06,NW,318,2.0,2.0,73,0.00,,,0.00,0.00,VWS V15.00,2013-12-18 08:23:00,
2013-12-18 02:28:00,11.9,4.9,30.06,NW,318,2.0,2.0,73,0.00,,,0.00,0.00,VWS V15.00,2013-12-18 08:28:00,
2013-12-18 02:33:00,11.7,4.7,30.06,NW,318,2.0,2.0,73,0.00,,,0.00,0.00,VWS V15.00,2013-12-18 08:33:00,
2013-12-18 02:38:00,11.6,4.6,30.07,NW,318,2.0,2.0,73,0.00,,,0.00,0.00,VWS V15.00,2013-12-18 08:38:00,
2013-12-18 02:43:00,11.4,4.4,30.07,NW,318,2.0,2.0,73,0.00,,,0.00,0.00,VWS V15.00,2013-12-18 08:43:00,
2013-12-18 02:48:00,11.2,4.2,30.08,NW,318,2.0,2.0,73,0.00,,,0.00,0.00,VWS V15.00,2013-12-18 08:48:00,
2013-12-18 02:53:00,11.0,4.3,30.08,NW,318,2.0,2.0,74,0.00,,,0.00,0.00,VWS V15.00,2013-12-18 08:53:00,
2013-12-18 02:58:00,10.9,4.2,30.07,NW,313,0.0,2.0,74,0.00,,,0.00,0.00,VWS V15.00,2013-12-18 08:58:00,
2013-12-18 03:03:00,10.7,4.1,30.07,NW,313,0.0,1.0,74,0.00,,,0.00,0.00,VWS V15.00,2013-12-18 09:03:00,
2013-12-18 03:08:00,10.6,4.2,30.07,NW,313,0.0,1.0,75,0.00,,,0.00,0.00,VWS V15.00,2013-12-18 09:08:00,
2013-12-18 03:13:00,10.4,4.1,30.07,NW,313,0.0,0.0,75,0.00,,,0.00,0.00,VWS V15.00,2013-12-18 09:13:00,
2013-12-18 03:18:00,10.3,4.0,30.07,NW,313,0.0,0.0,75,0.00,,,0.00,0.00,VWS V15.00,2013-12-18 09:18:00,
2013-12-18 03:23:00,10.1,3.8,30.07,NW,313,0.0,0.0,75,0.00,,,0.00,0.00,VWS V15.00,2013-12-18 09:23:00,
2013-12-18 03:28:00,9.9,3.6,30.07,NW,313,0.0,0.0,75,0.00,,,0.00,0.00,VWS V15.00,2013-12-18 09:28:00,
2013-12-18 03:33:00,9.8,3.8,30.07,NW,313,0.0,0.0,76,0.00,,,0.00,0.00,VWS V15.00,2013-12-18 09:33:00,
2013-12-18 03:38:00,9.6,3.6,30.07,NW,313,0.0,0.0,76,0.00,,,0.00,0.00,VWS V15.00,2013-12-18 09:38:00,
2013-12-18 03:43:00,9.4,3.7,30.07,NW,313,0.0,0.0,77,0.00,,,0.00,0.00,VWS V15.00,2013-12-18 09:43:00,
2013-12-18 03:48:00,9.2,3.2,30.06,NW,313,0.0,0.0,76,0.00,,,0.00,0.00,VWS V15.00,2013-12-18 09:48:00,
2013-12-18 03:53:00,9.0,3.0,30.07,NW,313,0.0,0.0,76,0.00,,,0.00,0.00,VWS V15.00,2013-12-18 09:53:00,
2013-12-18 03:58:00,8.8,3.1,30.07,NW,313,0.0,0.0,77,0.00,,,0.00,0.00,VWS V15.00,2013-12-18 09:58:00,
2013-12-18 04:03:00,8.6,2.9,30.07,NW,313,0.0,0.0,77,0.00,,,0.00,0.00,VWS V15.00,2013-12-18 10:03:00,
2013-12-18 04:08:00,8.5,2.8,30.07,NW,313,0.0,0.0,77,0.00,,,0.00,0.00,VWS V15.00,2013-12-18 10:08:00,
2013-12-18 04:13:00,8.3,2.9,30.07,NW,313,0.0,0.0,78,0.00,,,0.00,0.00,VWS V15.00,2013-12-18 10:13:00,
2013-12-18 04:18:00,8.2,2.8,30.07,NW,313,0.0,0.0,78,0.00,,,0.00,0.00,VWS V15.00,2013-12-18 10:18:00,
2013-12-18 04:23:00,8.1,2.7,30.07,NW,313,0.0,0.0,78,0.00,,,0.00,0.00,VWS V15.00,2013-12-18 10:23:00,
2013-12-18 04:28:00,8.0,2.8,30.07,NW,313,0.0,0.0,79,0.00,,,0.00,0.00,VWS V15.00,2013-12-18 10:28:00,
2013-12-18 04:33:00,7.9,2.8,30.07,NW,313,0.0,0.0,79,0.00,,,0.00,0.00,VWS V15.00,2013-12-18 10:33:00,
2013-12-18 04:38:00,7.7,2.6,30.06,NW,313,0.0,0.0,79,0.00,,,0.00,0.00,VWS V15.00,2013-12-18 10:38:00,
2013-12-18 04:43:00,7.6,2.5,30.06,NW,313,0.0,0.0,79,0.00,,,0.00,0.00,VWS V15.00,2013-12-18 10:43:00,
2013-12-18 04:48:00,7.5,2.4,30.06,NW,313,0.0,0.0,79,0.00,,,0.00,0.00,VWS V15.00,2013-12-18 10:48:00,
2013-12-18 04:53:00,7.3,2.2,30.07,NW,313,0.0,0.0,79,0.00,,,0.00,0.00,VWS V15.00,2013-12-18 10:53:00,
2013-12-18 04:58:00,7.2,2.3,30.07,NW,313,0.0,0.0,80,0.00,,,0.00,0.00,VWS V15.00,2013-12-18 10:58:00,
2013-12-18 05:03:00,7.1,2.2,30.06,NW,313,0.0,0.0,80,0.00,,,0.00,0.00,VWS V15.00,2013-12-18 11:03:00,
2013-12-18 05:08:00,6.9,2.0,30.07,NW,313,0.0,0.0,80,0.00,,,0.00,0.00,VWS V15.00,2013-12-18 11:08:00,
2013-12-18 05:13:00,6.5,1.4,30.07,NW,313,0.0,0.0,79,0.00,,,0.00,0.00,VWS V15.00,2013-12-18 11:13:00,
2013-12-18 05:14:00,6.4,1.3,30.07,NW,313,0.0,0.0,79,0.00,,,0.00,0.00,VWS V15.00,2013-12-18 11:14:00,
2013-12-18 05:19:00,6.0,0.9,30.07,NW,313,0.0,0.0,79,0.00,,,0.00,0.00,VWS V15.00,2013-12-18 11:19:00,
2013-12-18 05:24:00,5.7,0.9,30.07,NW,313,0.0,0.0,80,0.00,,,0.00,0.00,VWS V15.00,2013-12-18 11:24:00,
2013-12-18 05:29:00,5.6,1.0,30.08,NW,313,0.0,0.0,81,0.00,,,0.00,0.00,VWS V15.00,2013-12-18 11:29:00,
2013-12-18 05:34:00,5.6,1.3,30.07,NW,313,0.0,0.0,82,0.00,,,0.00,0.00,VWS V15.00,2013-12-18 11:34:00,
2013-12-18 05:39:00,5.7,1.4,30.08,NW,313,0.0,0.0,82,0.00,,,0.00,0.00,VWS V15.00,2013-12-18 11:39:00,
2013-12-18 05:44:00,5.8,1.8,30.08,NW,313,0.0,0.0,83,0.00,,,0.00,0.00,VWS V15.00,2013-12-18 11:44:00,
2013-12-18 05:49:00,5.9,1.9,30.08,NW,313,0.0,1.0,83,0.00,,,0.00,0.00,VWS V15.00,2013-12-18 11:49:00,
2013-12-18 05:54:00,5.9,1.9,30.08,NW,313,0.0,0.0,83,0.00,,,0.00,0.00,VWS V15.00,2013-12-18 11:54:00,
2013-12-18 05:59:00,5.9,1.9,30.08,NW,313,0.0,0.0,83,0.00,,,0.00,0.00,VWS V15.00,2013-12-18 11:59:00,
2013-12-18 06:04:00,5.8,1.8,30.08,NW,313,0.0,0.0,83,0.00,,,0.00,0.00,VWS V15.00,2013-12-18 12:04:00,
2013-12-18 06:09:00,5.6,1.6,30.07,NW,313,0.0,0.0,83,0.00,,,0.00,0.00,VWS V15.00,2013-12-18 12:09:00,
2013-12-18 06:14:00,5.4,1.4,30.08,NW,313,0.0,0.0,83,0.00,,,0.00,0.00,VWS V15.00,2013-12-18 12:14:00,
2013-12-18 06:19:00,5.2,1.2,30.09,NW,313,0.0,0.0,83,0.00,,,0.00,0.00,VWS V15.00,2013-12-18 12:19:00,
2013-12-18 06:24:00,5.1,1.3,30.08,NW,313,0.0,0.0,84,0.00,,,0.00,0.00,VWS V15.00,2013-12-18 12:24:00,
2013-12-18 06:28:00,4.9,1.1,30.08,NW,313,0.0,0.0,84,0.00,,,0.00,0.00,VWS V15.00,2013-12-18 12:28:00,
2013-12-18 06:33:00,4.7,0.9,30.08,NW,313,0.0,0.0,84,0.00,,,0.00,0.00,VWS V15.00,2013-12-18 12:33:00,
2013-12-18 06:38:00,4.5,0.7,30.08,NW,313,0.0,0.0,84,0.00,,,0.00,0.00,VWS V15.00,2013-12-18 12:38:00,
2013-12-18 06:43:00,4.4,0.6,30.07,NW,313,0.0,0.0,84,0.00,,,0.00,0.00,VWS V15.00,2013-12-18 12:43:00,
2013-12-18 06:48:00,4.2,0.4,30.06,NW,313,0.0,0.0,84,0.00,,,0.00,0.00,VWS V15.00,2013-12-18 12:48:00,
2013-12-18 06:53:00,4.1,0.3,30.07,NW,313,0.0,0.0,84,0.00,,,0.00,0.00,VWS V15.00,2013-12-18 12:53:00,
2013-12-18 06:58:00,3.9,0.2,30.07,NW,313,0.0,0.0,84,0.00,,,0.00,0.00,VWS V15.00,2013-12-18 12:58:00,
2013-12-18 07:03:00,3.8,0.1,30.06,NW,313,0.0,0.0,84,0.00,,,0.00,0.00,VWS V15.00,2013-12-18 13:03:00,
2013-12-18 07:08:00,3.7,0.2,30.07,NW,313,0.0,0.0,85,0.00,,,0.00,0.00,VWS V15.00,2013-12-18 13:08:00,
2013-12-18 07:13:00,3.6,0.1,30.07,NW,313,0.0,0.0,85,0.00,,,0.00,0.00,VWS V15.00,2013-12-18 13:13:00,
2013-12-18 07:18:00,3.5,0.0,30.07,NW,313,0.0,0.0,85,0.00,,,0.00,0.00,VWS V15.00,2013-12-18 13:18:00,
2013-12-18 07:23:00,3.3,-0.2,30.06,NW,313,1.0,1.0,85,0.00,,,0.00,0.00,VWS V15.00,2013-12-18 13:23:00,
2013-12-18 07:28:00,3.1,-0.4,30.05,NW,313,0.0,1.0,85,0.00,,,0.00,0.00,VWS V15.00,2013-12-18 13:28:00,
2013-12-18 07:33:00,2.8,-0.7,30.07,NW,313,0.0,0.0,85,0.00,,,0.00,0.00,VWS V15.00,2013-12-18 13:33:00,
2013-12-18 07:38:00,2.8,-0.7,30.06,NW,313,0.0,0.0,85,0.00,,,0.00,0.00,VWS V15.00,2013-12-18 13:38:00,
2013-12-18 07:43:00,2.9,-0.3,30.06,NW,313,0.0,0.0,86,0.00,,,0.00,7.00,VWS V15.00,2013-12-18 13:43:00,
2013-12-18 07:48:00,3.3,0.1,30.06,NW,313,0.0,0.0,86,0.00,,,0.00,11.00,VWS V15.00,2013-12-18 13:48:00,
2013-12-18 07:53:00,3.7,0.7,30.06,NW,313,0.0,0.0,87,0.00,,,0.00,11.00,VWS V15.00,2013-12-18 13:53:00,
2013-12-18 07:58:00,4.4,1.6,30.06,NW,313,0.0,0.0,88,0.00,,,0.00,11.00,VWS V15.00,2013-12-18 13:58:00,
2013-12-18 08:03:00,4.8,2.0,30.06,NW,313,0.0,0.0,88,0.00,,,0.00,12.00,VWS V15.00,2013-12-18 14:03:00,
2013-12-18 08:08:00,5.3,2.5,30.07,NW,313,0.0,0.0,88,0.00,,,0.00,14.00,VWS V15.00,2013-12-18 14:08:00,
2013-12-18 08:13:00,5.7,2.9,30.07,NW,313,0.0,0.0,88,0.00,,,0.00,16.00,VWS V15.00,2013-12-18 14:13:00,
2013-12-18 08:18:00,6.0,3.2,30.06,NW,313,0.0,0.0,88,0.00,,,0.00,18.00,VWS V15.00,2013-12-18 14:18:00,
2013-12-18 08:23:00,6.4,3.6,30.05,NW,313,0.0,1.0,88,0.00,,,0.00,23.00,VWS V15.00,2013-12-18 14:23:00,
2013-12-18 08:28:00,6.7,3.9,30.05,NW,313,0.0,1.0,88,0.00,,,0.00,28.00,VWS V15.00,2013-12-18 14:28:00,
2013-12-18 08:33:00,7.0,4.2,30.05,NW,313,0.0,0.0,88,0.00,,,0.00,28.00,VWS V15.00,2013-12-18 14:33:00,
2013-12-18 08:38:00,7.3,4.5,30.05,NW,313,0.0,2.0,88,0.00,,,0.00,30.00,VWS V15.00,2013-12-18 14:38:00,
2013-12-18 08:43:00,7.6,4.6,30.05,NW,313,0.0,0.0,87,0.00,,,0.00,30.00,VWS V15.00,2013-12-18 14:43:00,
2013-12-18 08:48:00,7.8,4.7,30.05,NW,313,0.0,0.0,87,0.00,,,0.00,33.00,VWS V15.00,2013-12-18 14:48:00,
2013-12-18 08:53:00,8.0,4.9,30.05,NW,313,0.0,0.0,87,0.00,,,0.00,39.00,VWS V15.00,2013-12-18 14:53:00,
2013-12-18 08:58:00,8.3,5.0,30.04,NW,313,0.0,0.0,86,0.00,,,0.00,44.00,VWS V15.00,2013-12-18 14:58:00,
2013-12-18 09:03:00,8.5,5.2,30.03,NW,313,0.0,0.0,86,0.00,,,0.00,51.00,VWS V15.00,2013-12-18 15:03:00,
2013-12-18 09:08:00,8.7,5.4,30.03,NW,313,0.0,0.0,86,0.00,,,0.00,53.00,VWS V15.00,2013-12-18 15:08:00,
2013-12-18 09:13:00,8.9,5.3,30.04,NW,313,0.0,0.0,85,0.00,,,0.00,56.00,VWS V15.00,2013-12-18 15:13:00,
2013-12-18 09:18:00,9.1,5.5,30.05,NW,313,0.0,1.0,85,0.00,,,0.00,54.00,VWS V15.00,2013-12-18 15:18:00,
2013-12-18 09:23:00,9.3,5.7,30.05,NW,313,0.0,1.0,85,0.00,,,0.00,69.00,VWS V15.00,2013-12-18 15:23:00,
2013-12-18 09:28:00,9.6,6.0,30.05,NW,313,0.0,1.0,85,0.00,,,0.00,63.00,VWS V15.00,2013-12-18 15:28:00,
2013-12-18 09:33:00,10.0,6.4,30.04,NW,313,0.0,0.0,85,0.00,,,0.00,76.00,VWS V15.00,2013-12-18 15:33:00,
2013-12-18 09:38:00,10.3,6.7,30.04,NW,313,0.0,0.0,85,0.00,,,0.00,77.00,VWS V15.00,2013-12-18 15:38:00,
2013-12-18 09:43:00,10.6,6.7,30.03,NW,313,0.0,0.0,84,0.00,,,0.00,86.00,VWS V15.00,2013-12-18 15:43:00,
2013-12-18 09:48:00,11.0,6.9,30.03,NW,313,0.0,0.0,83,0.00,,,0.00,102.00,VWS V15.00,2013-12-18 15:48:00,
2013-12-18 09:53:00,11.2,7.1,30.03,NW,313,0.0,0.0,83,0.00,,,0.00,120.00,VWS V15.00,2013-12-18 15:53:00,
2013-12-18 09:58:00,11.2,7.1,30.03,NW,313,0.0,1.0,83,0.00,,,0.00,120.00,VWS V15.00,2013-12-18 15:58:00,
2013-12-18 10:03:00,11.9,7.2,30.03,NW,313,0.0,0.0,81,0.00,,,0.00,97.00,VWS V15.00,2013-12-18 16:03:00,
2013-12-18 10:08:00,12.3,7.6,30.03,NW,313,0.0,1.0,81,0.00,,,0.00,114.00,VWS V15.00,2013-12-18 16:08:00,
2013-12-18 10:13:00,12.7,7.7,30.02,NW,313,0.0,0.0,80,0.00,,,0.00,142.00,VWS V15.00,2013-12-18 16:13:00,
2013-12-18 10:18:00,13.2,7.9,30.02,NW,313,0.0,1.0,79,0.00,,,0.00,151.00,VWS V15.00,2013-12-18 16:18:00,
2013-12-18 10:23:00,13.6,8.0,30.01,NW,313,0.0,1.0,78,0.00,,,0.00,141.00,VWS V15.00,2013-12-18 16:23:00,
2013-12-18 10:28:00,14.0,8.4,30.00,NW,313,0.0,1.0,78,0.00,,,0.00,114.00,VWS V15.00,2013-12-18 16:28:00,
2013-12-18 10:33:00,14.5,8.6,30.00,NW,313,0.0,1.0,77,0.00,,,0.00,151.00,VWS V15.00,2013-12-18 16:33:00,
2013-12-18 10:38:00,14.8,8.6,30.00,NW,313,0.0,1.0,76,0.00,,,0.00,148.00,VWS V15.00,2013-12-18 16:38:00,
2013-12-18 10:43:00,15.1,8.9,29.99,NW,313,0.0,1.0,76,0.00,,,0.00,158.00,VWS V15.00,2013-12-18 16:43:00,
2013-12-18 10:48:00,15.4,8.9,29.98,NW,313,0.0,2.0,75,0.00,,,0.00,155.00,VWS V15.00,2013-12-18 16:48:00,
2013-12-18 10:53:00,15.6,9.1,29.98,NW,313,0.0,1.0,75,0.00,,,0.00,104.00,VWS V15.00,2013-12-18 16:53:00,
2013-12-18 10:58:00,15.8,9.0,29.98,NW,317,0.0,4.0,74,0.00,,,0.00,142.00,VWS V15.00,2013-12-18 16:58:00,
2013-12-18 11:03:00,15.9,9.1,29.97,NW,317,0.0,2.0,74,0.00,,,0.00,125.00,VWS V15.00,2013-12-18 17:03:00,
2013-12-18 11:08:00,15.9,9.1,29.97,NW,317,0.0,2.0,74,0.00,,,0.00,113.00,VWS V15.00,2013-12-18 17:08:00,
2013-12-18 11:13:00,16.0,9.2,29.97,NW,317,0.0,1.0,74,0.00,,,0.00,77.00,VWS V15.00,2013-12-18 17:13:00,
2013-12-18 11:18:00,16.1,9.3,29.97,NW,317,0.0,2.0,74,0.00,,,0.00,83.00,VWS V15.00,2013-12-18 17:18:00,
2013-12-18 11:23:00,16.2,9.4,29.95,NW,317,0.0,2.0,74,0.00,,,0.00,81.00,VWS V15.00,2013-12-18 17:23:00,
2013-12-18 11:28:00,16.4,9.6,29.95,NW,317,0.0,2.0,74,0.00,,,0.00,69.00,VWS V15.00,2013-12-18 17:28:00,
2013-12-18 11:33:00,16.7,9.9,29.95,NW,317,0.0,1.0,74,0.00,,CLR,0.00,56.00,VWS V15.00,2013-12-18 17:33:00,
2013-12-18 11:38:00,16.9,10.1,29.94,NW,317,0.0,1.0,74,0.00,,CLR,0.00,76.00,VWS V15.00,2013-12-18 17:38:00,
2013-12-18 11:43:00,17.1,10.3,29.94,NW,317,0.0,2.0,74,0.00,,CLR,0.00,74.00,VWS V15.00,2013-12-18 17:43:00,
2013-12-18 11:48:00,17.3,10.4,29.92,NW,317,0.0,2.0,74,0.00,,CLR,0.00,67.00,VWS V15.00,2013-12-18 17:48:00,
2013-12-18 11:53:00,17.5,10.6,29.92,NW,314,0.0,2.0,74,0.00,,CLR,0.00,70.00,VWS V15.00,2013-12-18 17:53:00,
2013-12-18 11:58:00,17.7,10.8,29.92,NE,53,0.0,3.0,74,0.00,,CLR,0.00,67.00,VWS V15.00,2013-12-18 17:58:00,
2013-12-18 12:03:00,17.9,11.0,29.92,NW,313,0.0,5.0,74,0.00,,CLR,0.00,86.00,VWS V15.00,2013-12-18 18:03:00,
2013-12-18 12:08:00,18.2,11.3,29.92,NW,313,1.0,5.0,74,0.00,,CLR,0.00,93.00,VWS V15.00,2013-12-18 18:08:00,
2013-12-18 12:13:00,18.4,11.5,29.91,NW,313,0.0,0.0,74,0.00,,CLR,0.00,98.00,VWS V15.00,2013-12-18 18:13:00,
2013-12-18 12:18:00,18.4,11.5,29.91,NW,313,0.0,2.0,74,0.00,,CLR,0.00,98.00,VWS V15.00,2013-12-18 18:18:00,
2013-12-18 12:23:00,18.4,11.5,29.89,NW,313,0.0,1.0,74,0.00,,CLR,0.00,98.00,VWS V15.00,2013-12-18 18:23:00,
2013-12-18 12:28:00,18.4,11.5,29.89,NW,313,0.0,2.0,74,0.00,,CLR,0.00,98.00,VWS V15.00,2013-12-18 18:28:00,
2013-12-18 12:33:00,18.4,11.5,29.89,NW,313,0.0,0.0,74,0.00,,CLR,0.00,98.00,VWS V15.00,2013-12-18 18:33:00,
2013-12-18 12:38:00,18.4,11.5,29.88,NW,315,0.0,2.0,74,0.00,,CLR,0.00,98.00,VWS V15.00,2013-12-18 18:38:00,
2013-12-18 12:43:00,18.4,11.5,29.87,NNE,16,0.0,4.0,74,0.00,,CLR,0.00,98.00,VWS V15.00,2013-12-18 18:43:00,
2013-12-18 12:48:00,18.4,11.5,29.87,NNE,16,0.0,4.0,74,0.00,,CLR,0.00,98.00,VWS V15.00,2013-12-18 18:48:00,
2013-12-18 12:53:00,18.4,11.5,29.86,NNE,16,0.0,3.0,74,0.00,,CLR,0.00,98.00,VWS V15.00,2013-12-18 18:53:00,
2013-12-18 12:58:00,18.4,11.5,29.85,NNE,15,0.0,3.0,74,0.00,,CLR,0.00,98.00,VWS V15.00,2013-12-18 18:58:00,
2013-12-18 13:03:00,18.4,11.5,29.85,NNE,15,0.0,1.0,74,0.00,,CLR,0.00,98.00,VWS V15.00,2013-12-18 19:03:00,
2013-12-18 13:08:00,18.4,11.5,29.85,NNE,15,0.0,1.0,74,0.00,,CLR,0.00,98.00,VWS V15.00,2013-12-18 19:08:00,
2013-12-18 13:13:00,18.4,11.5,29.84,NNE,15,0.0,3.0,74,0.00,,CLR,0.00,98.00,VWS V15.00,2013-12-18 19:13:00,
2013-12-18 13:18:00,18.4,11.5,29.84,NNE,12,0.0,3.0,74,0.00,,CLR,0.00,98.00,VWS V15.00,2013-12-18 19:18:00,
2013-12-18 13:23:00,18.4,11.5,29.84,NW,306,0.0,1.0,74,0.00,,CLR,0.00,98.00,VWS V15.00,2013-12-18 19:23:00,
2013-12-18 13:28:00,18.4,11.5,29.83,NW,306,0.0,1.0,74,0.00,,CLR,0.00,98.00,VWS V15.00,2013-12-18 19:28:00,
2013-12-18 13:33:00,18.4,11.5,29.82,NW,306,0.0,0.0,74,0.00,,CLR,0.00,98.00,VWS V15.00,2013-12-18 19:33:00,
2013-12-18 13:38:00,18.4,11.5,29.82,NW,306,0.0,1.0,74,0.00,,CLR,0.00,98.00,VWS V15.00,2013-12-18 19:38:00,
2013-12-18 13:43:00,18.4,11.5,29.82,WNW,300,1.0,1.0,74,0.00,,CLR,0.00,98.00,VWS V15.00,2013-12-18 19:43:00,
2013-12-18 13:48:00,18.4,11.5,29.81,WNW,300,0.0,1.0,74,0.00,,CLR,0.00,98.00,VWS V15.00,2013-12-18 19:48:00,
2013-12-18 13:53:00,18.4,11.5,29.81,WNW,300,1.0,1.0,74,0.00,,CLR,0.00,98.00,VWS V15.00,2013-12-18 19:53:00,
2013-12-18 13:58:00,18.4,11.5,29.80,WNW,300,0.0,1.0,74,0.00,,CLR,0.00,98.00,VWS V15.00,2013-12-18 19:58:00,
2013-12-18 14:03:00,18.4,11.5,29.80,WNW,300,0.0,1.0,74,0.00,,CLR,0.00,98.00,VWS V15.00,2013-12-18 20:03:00,
2013-12-18 14:08:00,18.4,11.5,29.80,WNW,300,0.0,2.0,74,0.00,,CLR,0.00,98.00,VWS V15.00,2013-12-18 20:08:00,
2013-12-18 14:13:00,18.4,11.5,29.80,WNW,300,0.0,0.0,74,0.00,,CLR,0.00,98.00,VWS V15.00,2013-12-18 20:13:00,
2013-12-18 14:18:00,18.4,11.5,29.80,WNW,300,0.0,0.0,74,0.00,,CLR,0.00,98.00,VWS V15.00,2013-12-18 20:18:00,
2013-12-18 14:23:00,18.4,11.5,29.80,WNW,300,0.0,0.0,74,0.00,,CLR,0.00,98.00,VWS V15.00,2013-12-18 20:23:00,
2013-12-18 14:28:00,18.4,11.5,29.79,WNW,300,0.0,1.0,74,0.00,,CLR,0.00,98.00,VWS V15.00,2013-12-18 20:28:00,
2013-12-18 14:33:00,18.4,11.5,29.78,WNW,300,0.0,0.0,74,0.00,,CLR,0.00,98.00,VWS V15.00,2013-12-18 20:33:00,
2013-12-18 14:38:00,18.4,11.5,29.77,WNW,300,0.0,0.0,74,0.00,,CLR,0.00,98.00,VWS V15.00,2013-12-18 20:38:00,
2013-12-18 14:43:00,18.4,11.5,29.77,WNW,300,0.0,0.0,74,0.00,,CLR,0.00,98.00,VWS V15.00,2013-12-18 20:43:00,
2013-12-18 14:48:00,18.4,11.5,29.77,WNW,300,0.0,0.0,74,0.00,,CLR,0.00,98.00,VWS V15.00,2013-12-18 20:48:00,
2013-12-18 14:53:00,24.3,16.3,29.76,WNW,300,0.0,0.0,71,0.00,,CLR,0.00,98.00,VWS V15.00,2013-12-18 20:53:00,
2013-12-18 14:58:00,24.2,16.2,29.76,WNW,300,0.0,0.0,71,0.00,,CLR,0.00,25.00,VWS V15.00,2013-12-18 20:58:00,
2013-12-18 15:03:00,24.2,16.5,29.75,WNW,300,0.0,0.0,72,0.00,,CLR,0.00,25.00,VWS V15.00,2013-12-18 21:03:00,
2013-12-18 15:08:00,24.1,16.4,29.75,WNW,300,0.0,0.0,72,0.00,,CLR,0.00,28.00,VWS V15.00,2013-12-18 21:08:00,
2013-12-18 15:13:00,24.0,16.3,29.75,WNW,300,0.0,0.0,72,0.00,,CLR,0.00,37.00,VWS V15.00,2013-12-18 21:13:00,
2013-12-18 15:18:00,24.0,16.3,29.75,WNW,300,0.0,0.0,72,0.00,,CLR,0.00,40.00,VWS V15.00,2013-12-18 21:18:00,
2013-12-18 15:23:00,23.9,16.5,29.75,WNW,300,0.0,0.0,73,0.00,,CLR,0.00,39.00,VWS V15.00,2013-12-18 21:23:00,
2013-12-18 15:28:00,23.9,16.5,29.75,WNW,300,0.0,0.0,73,0.00,,CLR,0.00,35.00,VWS V15.00,2013-12-18 21:28:00,
2013-12-18 15:33:00,23.9,16.5,29.75,WNW,300,0.0,0.0,73,0.00,,CLR,0.00,33.00,VWS V15.00,2013-12-18 21:33:00,
2013-12-18 15:38:00,24.0,16.6,29.75,WNW,300,0.0,0.0,73,0.00,,CLR,0.00,32.00,VWS V15.00,2013-12-18 21:38:00,
2013-12-18 15:43:00,24.0,16.9,29.75,WNW,300,0.0,0.0,74,0.00,,CLR,0.00,28.00,VWS V15.00,2013-12-18 21:43:00,
2013-12-18 15:48:00,24.0,16.6,29.75,WNW,300,0.0,0.0,73,0.00,,CLR,0.00,28.00,VWS V15.00,2013-12-18 21:48:00,
2013-12-18 15:53:00,24.0,16.6,29.75,WNW,300,0.0,0.0,73,0.00,,CLR,0.00,28.00,VWS V15.00,2013-12-18 21:53:00,
2013-12-18 15:58:00,24.0,16.6,29.75,WNW,300,0.0,0.0,73,0.00,,CLR,0.00,28.00,VWS V15.00,2013-12-18 21:58:00,
2013-12-18 16:03:00,24.0,16.6,29.74,WNW,300,0.0,0.0,73,0.00,,CLR,0.00,28.00,VWS V15.00,2013-12-18 22:03:00,
2013-12-18 16:08:00,24.0,16.6,29.74,WNW,300,0.0,0.0,73,0.00,,CLR,0.00,28.00,VWS V15.00,2013-12-18 22:08:00,
2013-12-18 16:13:00,24.0,16.6,29.73,WNW,300,0.0,0.0,73,0.00,,CLR,0.00,28.00,VWS V15.00,2013-12-18 22:13:00,
2013-12-18 16:18:00,24.0,16.6,29.74,WNW,300,0.0,0.0,73,0.00,,CLR,0.00,28.00,VWS V15.00,2013-12-18 22:18:00,
2013-12-18 16:23:00,24.0,16.6,29.74,WNW,300,0.0,0.0,73,0.00,,CLR,0.00,28.00,VWS V15.00,2013-12-18 22:23:00,
2013-12-18 16:28:00,24.0,16.6,29.73,WNW,300,0.0,0.0,73,0.00,,CLR,0.00,28.00,VWS V15.00,2013-12-18 22:28:00,
2013-12-18 16:33:00,24.0,16.6,29.73,WNW,300,0.0,0.0,73,0.00,,CLR,0.00,28.00,VWS V15.00,2013-12-18 22:33:00,
2013-12-18 16:38:00,24.0,16.6,29.73,WNW,300,0.0,0.0,73,0.00,,CLR,0.00,28.00,VWS V15.00,2013-12-18 22:38:00,
2013-12-18 16:43:00,24.0,16.6,29.74,WNW,300,0.0,0.0,73,0.00,,CLR,0.00,28.00,VWS V15.00,2013-12-18 22:43:00,
2013-12-18 16:48:00,24.0,16.6,29.73,WNW,300,0.0,0.0,73,0.00,,CLR,0.00,28.00,VWS V15.00,2013-12-18 22:48:00,
2013-12-18 16:53:00,24.0,16.6,29.73,WNW,300,0.0,0.0,73,0.00,,CLR,0.00,28.00,VWS V15.00,2013-12-18 22:53:00,
2013-12-18 16:58:00,24.0,16.6,29.74,WNW,300,0.0,0.0,73,0.00,,CLR,0.00,28.00,VWS V15.00,2013-12-18 22:58:00,
2013-12-18 17:03:00,24.0,16.6,29.74,WNW,300,0.0,0.0,73,0.00,,CLR,0.00,28.00,VWS V15.00,2013-12-18 23:03:00,
2013-12-18 17:08:00,24.0,16.6,29.74,WNW,300,0.0,0.0,73,0.00,,CLR,0.00,28.00,VWS V15.00,2013-12-18 23:08:00,
2013-12-18 17:13:00,24.0,16.6,29.74,WNW,300,0.0,0.0,73,0.00,,CLR,0.00,28.00,VWS V15.00,2013-12-18 23:13:00,
2013-12-18 17:18:00,24.0,16.6,29.74,WNW,300,0.0,0.0,73,0.00,,CLR,0.00,28.00,VWS V15.00,2013-12-18 23:18:00,
2013-12-18 17:23:00,24.0,16.6,29.73,WNW,300,0.0,0.0,73,0.00,,CLR,0.00,28.00,VWS V15.00,2013-12-18 23:23:00,
2013-12-18 17:28:00,20.2,14.4,29.74,WNW,300,0.0,0.0,78,0.00,,CLR,0.00,0.00,VWS V15.00,2013-12-18 23:28:00,
2013-12-18 17:33:00,20.0,14.3,29.74,WNW,300,0.0,0.0,78,0.00,,CLR,0.00,0.00,VWS V15.00,2013-12-18 23:33:00,
2013-12-18 17:38:00,19.8,14.4,29.73,WNW,300,0.0,0.0,79,0.00,,CLR,0.00,0.00,VWS V15.00,2013-12-18 23:38:00,
2013-12-18 17:43:00,19.7,14.3,29.73,WNW,300,0.0,0.0,79,0.00,,CLR,0.00,0.00,VWS V15.00,2013-12-18 23:43:00,
2013-12-18 17:48:00,19.5,14.4,29.73,WNW,300,0.0,0.0,80,0.00,,CLR,0.00,0.00,VWS V15.00,2013-12-18 23:48:00,
2013-12-18 17:53:00,19.4,14.2,29.73,WNW,300,0.0,0.0,80,0.00,,CLR,0.00,0.00,VWS V15.00,2013-12-18 23:53:00,
2013-12-18 17:58:00,19.3,14.4,29.73,WNW,300,0.0,0.0,81,0.00,,CLR,0.00,0.00,VWS V15.00,2013-12-18 23:58:00,
2013-12-18 18:03:00,19.2,14.3,29.73,WNW,300,0.0,0.0,81,0.00,,CLR,0.00,0.00,VWS V15.00,2013-12-19 00:03:00,
2013-12-18 18:08:00,19.0,13.9,29.73,WNW,300,0.0,0.0,80,0.00,,CLR,0.00,0.00,VWS V15.00,2013-12-19 00:08:00,
2013-12-18 18:13:00,18.6,13.5,29.73,WNW,300,0.0,0.0,80,0.00,,CLR,0.00,0.00,VWS V15.00,2013-12-19 00:13:00,
2013-12-18 18:18:00,18.4,13.3,29.73,WNW,300,0.0,0.0,80,0.00,,CLR,0.00,0.00,VWS V15.00,2013-12-19 00:18:00,
2013-12-18 18:23:00,18.0,12.9,29.73,WNW,300,0.0,0.0,80,0.00,,CLR,0.00,0.00,VWS V15.00,2013-12-19 00:23:00,
2013-12-18 18:28:00,17.7,12.9,29.73,WNW,300,0.0,0.0,81,0.00,,CLR,0.00,0.00,VWS V15.00,2013-12-19 00:28:00,
2013-12-18 18:33:00,17.5,12.7,29.73,WNW,300,0.0,0.0,81,0.00,,CLR,0.00,0.00,VWS V15.00,2013-12-19 00:33:00,
2013-12-18 18:38:00,17.2,12.4,29.73,WNW,300,0.0,0.0,81,0.00,,CLR,0.00,0.00,VWS V15.00,2013-12-19 00:38:00,
2013-12-18 18:43:00,17.0,12.5,29.73,WNW,300,0.0,0.0,82,0.00,,CLR,0.00,0.00,VWS V15.00,2013-12-19 00:43:00,
2013-12-18 18:48:00,16.8,12.3,29.73,WNW,300,0.0,0.0,82,0.00,,CLR,0.00,0.00,VWS V15.00,2013-12-19 00:48:00,
2013-12-18 18:53:00,16.5,12.0,29.74,WNW,300,0.0,0.0,82,0.00,,CLR,0.00,0.00,VWS V15.00,2013-12-19 00:53:00,
2013-12-18 18:58:00,16.3,12.1,29.74,WNW,300,0.0,0.0,83,0.00,,CLR,0.00,0.00,VWS V15.00,2013-12-19 00:58:00,
2013-12-18 19:03:00,16.1,11.9,29.74,WNW,300,0.0,0.0,83,0.00,,CLR,0.00,0.00,VWS V15.00,2013-12-19 01:03:00,
2013-12-18 19:08:00,15.9,11.7,29.73,WNW,300,0.0,0.0,83,0.00,,CLR,0.00,0.00,VWS V15.00,2013-12-19 01:08:00,
2013-12-18 19:13:00,15.8,11.6,29.74,WNW,300,0.0,0.0,83,0.00,,CLR,0.00,0.00,VWS V15.00,2013-12-19 01:13:00,
2013-12-18 19:18:00,15.6,11.6,29.74,WNW,300,0.0,0.0,84,0.00,,CLR,0.00,0.00,VWS V15.00,2013-12-19 01:18:00,
2013-12-18 19:23:00,15.5,11.5,29.73,WNW,300,0.0,0.0,84,0.00,,CLR,0.00,0.00,VWS V15.00,2013-12-19 01:23:00,
2013-12-18 19:28:00,15.4,11.4,29.73,WNW,300,0.0,0.0,84,0.00,,CLR,0.00,0.00,VWS V15.00,2013-12-19 01:28:00,
2013-12-18 19:33:00,15.5,11.8,29.73,WNW,300,0.0,0.0,85,0.00,,CLR,0.00,0.00,VWS V15.00,2013-12-19 01:33:00,
2013-12-18 19:38:00,15.5,11.8,29.73,WNW,300,0.0,0.0,85,0.00,,CLR,0.00,0.00,VWS V15.00,2013-12-19 01:38:00,
2013-12-18 19:43:00,15.5,11.8,29.73,WNW,300,0.0,0.0,85,0.00,,CLR,0.00,0.00,VWS V15.00,2013-12-19 01:43:00,
2013-12-18 19:48:00,15.4,11.7,29.73,WNW,300,0.0,0.0,85,0.00,,CLR,0.00,0.00,VWS V15.00,2013-12-19 01:48:00,
2013-12-18 19:53:00,15.4,11.7,29.72,WNW,300,0.0,0.0,85,0.00,,CLR,0.00,0.00,VWS V15.00,2013-12-19 01:53:00,
2013-12-18 19:58:00,15.3,11.6,29.72,WNW,300,0.0,0.0,85,0.00,,CLR,0.00,0.00,VWS V15.00,2013-12-19 01:58:00,
2013-12-18 20:03:00,15.2,11.5,29.72,WNW,300,0.0,0.0,85,0.00,,CLR,0.00,0.00,VWS V15.00,2013-12-19 02:03:00,
2013-12-18 20:08:00,15.1,11.4,29.72,WNW,300,0.0,0.0,85,0.00,,CLR,0.00,0.00,VWS V15.00,2013-12-19 02:08:00,
2013-12-18 20:13:00,15.0,11.6,29.72,WNW,300,0.0,0.0,86,0.00,,CLR,0.00,0.00,VWS V15.00,2013-12-19 02:13:00,
2013-12-18 20:18:00,14.9,11.5,29.72,WNW,300,0.0,0.0,86,0.00,,CLR,0.00,0.00,VWS V15.00,2013-12-19 02:18:00,
2013-12-18 20:23:00,14.9,11.5,29.72,WNW,300,0.0,0.0,86,0.00,,CLR,0.00,0.00,VWS V15.00,2013-12-19 02:23:00,
2013-12-18 20:28:00,14.8,11.4,29.72,WNW,300,0.0,0.0,86,0.00,,CLR,0.00,0.00,VWS V15.00,2013-12-19 02:28:00,
2013-12-18 20:33:00,14.7,11.3,29.72,WNW,300,0.0,0.0,86,0.00,,CLR,0.00,0.00,VWS V15.00,2013-12-19 02:33:00,
2013-12-18 20:38:00,14.6,11.2,29.73,WNW,300,0.0,0.0,86,0.00,,CLR,0.00,0.00,VWS V15.00,2013-12-19 02:38:00,
2013-12-18 20:43:00,14.5,11.1,29.73,WNW,300,0.0,0.0,86,0.00,,CLR,0.00,0.00,VWS V15.00,2013-12-19 02:43:00,
2013-12-18 20:48:00,14.5,11.1,29.73,WNW,300,0.0,0.0,86,0.00,,CLR,0.00,0.00,VWS V15.00,2013-12-19 02:48:00,
2013-12-18 20:53:00,14.4,11.2,29.73,WNW,300,0.0,0.0,87,0.00,,CLR,0.00,0.00,VWS V15.00,2013-12-19 02:53:00,
2013-12-18 20:58:00,14.5,11.3,29.73,WNW,300,0.0,0.0,87,0.00,,CLR,0.00,0.00,VWS V15.00,2013-12-19 02:58:00,
2013-12-18 21:03:00,14.8,11.9,29.73,WNW,300,0.0,0.0,88,0.00,,CLR,0.00,0.00,VWS V15.00,2013-12-19 03:03:00,
2013-12-18 21:08:00,15.2,12.6,29.73,WNW,300,0.0,0.0,89,0.00,,CLR,0.00,0.00,VWS V15.00,2013-12-19 03:08:00,
2013-12-18 21:13:00,15.7,13.3,29.73,WNW,300,0.0,0.0,90,0.00,,CLR,0.00,0.00,VWS V15.00,2013-12-19 03:13:00,
2013-12-18 21:18:00,16.1,13.4,29.73,WNW,300,0.0,0.0,89,0.00,,CLR,0.00,0.00,VWS V15.00,2013-12-19 03:18:00,
2013-12-18 21:23:00,16.3,13.6,29.73,WNW,300,0.0,0.0,89,0.00,,CLR,0.00,0.00,VWS V15.00,2013-12-19 03:23:00,
2013-12-18 21:28:00,16.3,13.4,29.74,WNW,300,0.0,0.0,88,0.00,,CLR,0.00,0.00,VWS V15.00,2013-12-19 03:28:00,
2013-12-18 21:33:00,16.3,13.4,29.74,WNW,300,0.0,0.0,88,0.00,,CLR,0.00,0.00,VWS V15.00,2013-12-19 03:33:00,
2013-12-18 21:38:00,16.2,13.3,29.74,WNW,300,0.0,0.0,88,0.00,,CLR,0.00,0.00,VWS V15.00,2013-12-19 03:38:00,
2013-12-18 21:43:00,16.1,13.2,29.75,WNW,300,0.0,0.0,88,0.00,,CLR,0.00,0.00,VWS V15.00,2013-12-19 03:43:00,
2013-12-18 21:48:00,16.0,12.8,29.74,WNW,300,0.0,0.0,87,0.00,,CLR,0.00,0.00,VWS V15.00,2013-12-19 03:48:00,
2013-12-18 21:53:00,15.9,12.7,29.74,WNW,300,0.0,0.0,87,0.00,,CLR,0.00,0.00,VWS V15.00,2013-12-19 03:53:00,
2013-12-18 21:58:00,15.8,12.6,29.74,WNW,300,0.0,0.0,87,0.00,,CLR,0.00,0.00,VWS V15.00,2013-12-19 03:58:00,
2013-12-18 22:03:00,15.7,12.5,29.74,WNW,300,0.0,0.0,87,0.00,,CLR,0.00,0.00,VWS V15.00,2013-12-19 04:03:00,
2013-12-18 22:08:00,15.7,12.5,29.75,WNW,300,0.0,0.0,87,0.00,,CLR,0.00,0.00,VWS V15.00,2013-12-19 04:08:00,
2013-12-18 22:13:00,15.5,12.3,29.75,WNW,300,0.0,0.0,87,0.00,,CLR,0.00,0.00,VWS V15.00,2013-12-19 04:13:00,
2013-12-18 22:18:00,15.5,12.3,29.75,WNW,300,0.0,0.0,87,0.00,,CLR,0.00,0.00,VWS V15.00,2013-12-19 04:18:00,
2013-12-18 22:23:00,15.4,12.2,29.75,WNW,300,0.0,0.0,87,0.00,,CLR,0.00,0.00,VWS V15.00,2013-12-19 04:23:00,
2013-12-18 22:28:00,15.3,12.4,29.76,WNW,300,0.0,0.0,88,0.00,,CLR,0.00,0.00,VWS V15.00,2013-12-19 04:28:00,
2013-12-18 22:33:00,15.2,12.3,29.75,WNW,300,0.0,0.0,88,0.00,,CLR,0.00,0.00,VWS V15.00,2013-12-19 04:33:00,
2013-12-18 22:38:00,15.1,11.9,29.75,WNW,300,0.0,0.0,87,0.00,,CLR,0.00,0.00,VWS V15.00,2013-12-19 04:38:00,
2013-12-18 22:43:00,15.0,11.8,29.76,WNW,300,0.0,0.0,87,0.00,,CLR,0.00,0.00,VWS V15.00,2013-12-19 04:43:00,
2013-12-18 22:48:00,14.9,11.7,29.76,WNW,300,0.0,0.0,87,0.00,,CLR,0.00,0.00,VWS V15.00,2013-12-19 04:48:00,
2013-12-18 22:53:00,14.8,11.9,29.76,WNW,300,0.0,0.0,88,0.00,,CLR,0.00,0.00,VWS V15.00,2013-12-19 04:53:00,
2013-12-18 22:58:00,14.6,11.7,29.77,WNW,300,0.0,0.0,88,0.00,,CLR,0.00,0.00,VWS V15.00,2013-12-19 04:58:00,
2013-12-18 23:01:00,14.5,11.3,29.77,WNW,300,0.0,0.0,87,0.00,,CLR,0.00,0.00,VWS V15.00,2013-12-19 05:01:00,
2013-12-18 23:06:00,14.3,11.1,29.77,WNW,300,0.0,0.0,87,0.00,,CLR,0.00,0.00,VWS V15.00,2013-12-19 05:06:00,
2013-12-18 23:11:00,14.1,11.2,29.77,WNW,300,0.0,0.0,88,0.00,,CLR,0.00,0.00,VWS V15.00,2013-12-19 05:11:00,
2013-12-18 23:16:00,14.0,11.1,29.77,WNW,300,0.0,0.0,88,0.00,,CLR,0.00,0.00,VWS V15.00,2013-12-19 05:16:00,
2013-12-18 23:21:00,13.9,11.0,29.77,WNW,300,0.0,0.0,88,0.00,,CLR,0.00,0.00,VWS V15.00,2013-12-19 05:21:00,
2013-12-18 23:26:00,13.8,10.9,29.77,WNW,300,0.0,0.0,88,0.00,,CLR,0.00,0.00,VWS V15.00,2013-12-19 05:26:00,
2013-12-18 23:31:00,13.7,10.8,29.78,WNW,300,0.0,0.0,88,0.00,,CLR,0.00,0.00,VWS V15.00,2013-12-19 05:31:00,
2013-12-18 23:36:00,13.6,10.7,29.78,WNW,300,0.0,0.0,88,0.00,,CLR,0.00,0.00,VWS V15.00,2013-12-19 05:36:00,
2013-12-18 23:41:00,13.5,10.6,29.78,WNW,300,0.0,0.0,88,0.00,,CLR,0.00,0.00,VWS V15.00,2013-12-19 05:41:00,
2013-12-18 23:46:00,13.4,10.5,29.78,WNW,300,0.0,0.0,88,0.00,,CLR,0.00,0.00,VWS V15.00,2013-12-19 05:46:00,
2013-12-18 23:51:00,13.2,10.3,29.78,WNW,300,0.0,0.0,88,0.00,,CLR,0.00,0.00,VWS V15.00,2013-12-19 05:51:00,
2013-12-18 23:56:00,13.0,10.1,29.78,WNW,300,0.0,0.0,88,0.00,,CLR,0.00,0.00,VWS V15.00,2013-12-19 05:56:00,